Time;durP1;ratioP1;P1;durP2;ratioP2;P2;SDS_P1;SDS_P2;PMS_P1;PMS_P2;Temp;Humidity;BMP_temperature;BMP_pressure;BME280_temperature;BME280_humidity;BME280_pressure;Samples;Min_cycle;Max_cycle;Signal;HPM_P1;HPM_P2
2023/12/07 00:01:28;;;;;;;25.00;11.40;;;;;;;-148.88;100.00;-17125.47;5074924;28;20048;-84
2023/12/07 00:03:53;;;;;;;33.65;13.70;;;;;;;-148.88;100.00;-17125.47;5074945;28;20032;-85
2023/12/07 00:06:18;;;;;;;30.48;13.30;;;;;;;-148.88;100.00;-17125.47;5075106;28;20550;-85
2023/12/07 00:08:44;;;;;;;31.15;12.18;;;;;;;-148.88;100.00;-17125.47;5079099;28;20399;-86
2023/12/07 00:11:09;;;;;;;33.55;12.48;;;;;;;-148.88;100.00;-17125.47;5078361;28;20146;-85
2023/12/07 00:13:34;;;;;;;25.05;11.15;;;;;;;-148.88;100.00;-17125.47;5080054;28;20029;-85
2023/12/07 00:16:00;;;;;;;28.70;13.02;;;;;;;-148.88;100.00;-17125.47;5079805;28;20021;-86
2023/12/07 00:18:25;;;;;;;29.33;13.05;;;;;;;-148.88;100.00;-17125.47;5078296;28;20111;-85
2023/12/07 00:20:51;;;;;;;30.05;13.00;;;;;;;-148.88;100.00;-17125.47;5077297;28;20498;-86
2023/12/07 00:23:16;;;;;;;28.65;11.45;;;;;;;-148.88;100.00;-17125.47;5079432;28;20394;-85
2023/12/07 00:25:41;;;;;;;24.35;11.63;;;;;;;-148.88;100.00;-17125.47;5077915;28;20032;-85
2023/12/07 00:28:07;;;;;;;31.77;12.93;;;;;;;-148.88;100.00;-17125.47;5078651;28;20024;-86
2023/12/07 00:30:33;;;;;;;29.45;12.20;;;;;;;-148.88;100.00;-17125.47;5077753;28;20032;-85
2023/12/07 00:32:59;;;;;;;31.10;12.50;;;;;;;-148.88;100.00;-17125.47;5077147;28;20017;-86
2023/12/07 00:35:24;;;;;;;31.23;12.18;;;;;;;-148.88;100.00;-17125.47;5074417;28;20524;-85
2023/12/07 00:37:50;;;;;;;30.45;12.00;;;;;;;-148.88;100.00;-17125.47;5074277;28;20028;-85
2023/12/07 00:40:15;;;;;;;29.75;12.23;;;;;;;-148.88;100.00;-17125.47;5074389;28;20032;-85
2023/12/07 00:42:41;;;;;;;32.60;12.32;;;;;;;-148.88;100.00;-17125.47;5074249;28;20570;-85
2023/12/07 00:45:06;;;;;;;32.50;12.55;;;;;;;-148.88;100.00;-17125.47;5078271;28;20024;-85
2023/12/07 00:47:32;;;;;;;31.17;12.00;;;;;;;-148.88;100.00;-17125.47;5076842;28;20036;-85
2023/12/07 00:49:57;;;;;;;30.88;11.90;;;;;;;-148.88;100.00;-17125.47;5077603;28;20109;-85
2023/12/07 00:52:22;;;;;;;26.40;11.82;;;;;;;-148.88;100.00;-17125.47;5077616;28;20025;-85
2023/12/07 00:54:48;;;;;;;30.98;11.48;;;;;;;-148.88;100.00;-17125.47;5077463;28;20107;-85
2023/12/07 00:57:13;;;;;;;27.02;11.95;;;;;;;-148.88;100.00;-17125.47;5077037;28;20037;-84
2023/12/07 00:59:39;;;;;;;32.50;11.15;;;;;;;-148.88;100.00;-17125.47;5076636;28;20020;-84
2023/12/07 01:02:04;;;;;;;28.55;11.68;;;;;;;-148.88;100.00;-17125.47;5076965;28;20073;-85
2023/12/07 01:04:31;;;;;;;28.42;12.38;;;;;;;-148.88;100.00;-17125.47;5076559;28;20479;-84
2023/12/07 01:06:56;;;;;;;30.05;11.65;;;;;;;-148.88;100.00;-17125.47;5077683;28;20020;-84
2023/12/07 01:09:22;;;;;;;31.13;12.85;;;;;;;-148.88;100.00;-17125.47;5074283;28;20033;-84
2023/12/07 01:11:48;;;;;;;28.88;12.38;;;;;;;-148.88;100.00;-17125.47;5075366;28;20020;-84
2023/12/07 01:14:14;;;;;;;30.52;12.70;;;;;;;-148.88;100.00;-17125.47;5074131;28;20060;-84
2023/12/07 01:16:39;;;;;;;31.50;12.07;;;;;;;-148.88;100.00;-17125.47;5074155;28;20025;-85
2023/12/07 01:19:04;;;;;;;26.60;11.82;;;;;;;-148.88;100.00;-17125.47;5073852;28;20031;-84
2023/12/07 01:21:30;;;;;;;31.60;12.13;;;;;;;-148.88;100.00;-17125.47;5075871;28;20021;-84
2023/12/07 01:23:55;;;;;;;32.03;11.88;;;;;;;-148.88;100.00;-17125.47;5075940;28;20024;-84
2023/12/07 01:26:20;;;;;;;32.58;11.70;;;;;;;-148.88;100.00;-17125.47;5075693;28;20047;-84
2023/12/07 01:28:46;;;;;;;31.80;11.68;;;;;;;-148.88;100.00;-17125.47;5076392;28;20035;-85
2023/12/07 01:31:11;;;;;;;27.25;11.43;;;;;;;-148.88;100.00;-17125.47;5076727;28;20019;-85
2023/12/07 01:33:37;;;;;;;27.88;11.95;;;;;;;-148.88;100.00;-17125.47;5077307;28;20029;-84
2023/12/07 01:36:02;;;;;;;34.40;12.43;;;;;;;-148.88;100.00;-17125.47;5076818;28;20029;-84
2023/12/07 01:38:28;;;;;;;27.98;11.65;;;;;;;-148.88;100.00;-17125.47;5076858;28;20050;-85
2023/12/07 01:40:53;;;;;;;32.15;12.38;;;;;;;-148.88;100.00;-17125.47;5076551;28;20031;-84
2023/12/07 01:43:20;;;;;;;32.15;12.45;;;;;;;-148.88;100.00;-17125.47;5076607;28;20081;-84
2023/12/07 01:45:46;;;;;;;36.40;14.10;;;;;;;-148.88;100.00;-17125.47;5077106;28;20063;-84
2023/12/07 01:48:13;;;;;;;26.23;11.40;;;;;;;-148.88;100.00;-17125.47;5077233;28;20597;-84
2023/12/07 01:50:38;;;;;;;31.48;12.60;;;;;;;-148.88;100.00;-17125.47;5077382;28;20020;-84
2023/12/07 01:53:05;;;;;;;28.90;11.20;;;;;;;-148.88;100.00;-17125.47;5077113;28;20043;-84
2023/12/07 01:55:32;;;;;;;32.30;12.35;;;;;;;-148.88;100.00;-17125.47;5077101;28;20169;-84
2023/12/07 01:57:58;;;;;;;28.65;11.52;;;;;;;-148.88;100.00;-17125.47;5080268;28;20035;-83
2023/12/07 02:00:25;;;;;;;27.50;12.05;;;;;;;-148.88;100.00;-17125.47;5081289;28;20020;-84
2023/12/07 02:02:51;;;;;;;29.63;12.95;;;;;;;-148.88;100.00;-17125.47;5080744;28;20029;-84
2023/12/07 02:05:17;;;;;;;27.60;12.93;;;;;;;-148.88;100.00;-17125.47;5078893;28;20034;-84
2023/12/07 02:07:42;;;;;;;29.08;12.63;;;;;;;-148.88;100.00;-17125.47;5079920;28;20056;-84
2023/12/07 02:10:08;;;;;;;27.42;11.48;;;;;;;-148.88;100.00;-17125.47;5080045;28;20078;-84
2023/12/07 02:12:35;;;;;;;27.25;11.40;;;;;;;-148.88;100.00;-17125.47;5080023;28;20467;-84
2023/12/07 02:15:02;;;;;;;28.77;11.57;;;;;;;-148.88;100.00;-17125.47;5080676;28;20399;-85
2023/12/07 02:18:06;;;;;;;26.92;10.68;;;;;;;-148.88;100.00;-17125.47;5077223;28;20054;-82
2023/12/07 02:20:48;;;;;;;27.80;9.85;;;;;;;-148.88;100.00;-17125.47;5067022;28;20032;-84
2023/12/07 02:23:15;;;;;;;27.10;11.20;;;;;;;-148.88;100.00;-17125.47;5076666;28;20024;-84
2023/12/07 02:25:52;;;;;;;28.45;11.75;;;;;;;-148.88;100.00;-17125.47;5076146;28;20078;-85
2023/12/07 02:28:17;;;;;;;33.65;12.43;;;;;;;-148.88;100.00;-17125.47;5076684;28;20020;-85
2023/12/07 02:30:43;;;;;;;33.33;13.43;;;;;;;-148.88;100.00;-17125.47;5076330;28;20085;-84
2023/12/07 02:33:09;;;;;;;39.25;14.38;;;;;;;-148.88;100.00;-17125.47;5076932;28;20053;-83
2023/12/07 02:35:36;;;;;;;31.05;12.10;;;;;;;-148.88;100.00;-17125.47;5078963;28;20411;-85
2023/12/07 02:38:03;;;;;;;29.60;11.10;;;;;;;-148.88;100.00;-17125.47;5079691;28;20028;-85
2023/12/07 02:40:29;;;;;;;28.63;11.02;;;;;;;-148.88;100.00;-17125.47;5079418;28;20028;-84
2023/12/07 02:42:55;;;;;;;29.77;11.82;;;;;;;-148.88;100.00;-17125.47;5078877;28;20043;-85
2023/12/07 02:45:20;;;;;;;31.25;12.70;;;;;;;-148.88;100.00;-17125.47;5078601;28;20016;-84
2023/12/07 02:47:46;;;;;;;28.25;11.80;;;;;;;-148.88;100.00;-17125.47;5079580;28;20029;-84
2023/12/07 02:50:12;;;;;;;27.50;11.65;;;;;;;-148.88;100.00;-17125.47;5079143;28;20024;-85
2023/12/07 02:52:38;;;;;;;30.15;10.80;;;;;;;-148.88;100.00;-17125.47;5076367;28;20050;-84
2023/12/07 02:55:04;;;;;;;27.23;11.15;;;;;;;-148.88;100.00;-17125.47;5073626;28;20020;-84
2023/12/07 02:57:30;;;;;;;31.95;12.32;;;;;;;-148.88;100.00;-17125.47;5075612;28;20036;-84
2023/12/07 02:59:57;;;;;;;25.38;11.98;;;;;;;-148.88;100.00;-17125.47;5076147;28;20032;-84
2023/12/07 03:02:22;;;;;;;26.60;12.20;;;;;;;-148.88;100.00;-17125.47;5075827;28;20025;-83
2023/12/07 03:04:47;;;;;;;26.80;11.85;;;;;;;-148.88;100.00;-17125.47;5076554;28;20483;-85
2023/12/07 03:07:13;;;;;;;26.45;10.73;;;;;;;-148.88;100.00;-17125.47;5075900;28;20521;-84
2023/12/07 03:09:38;;;;;;;29.23;11.82;;;;;;;-148.88;100.00;-17125.47;5075988;28;20039;-85
2023/12/07 03:12:04;;;;;;;29.67;11.73;;;;;;;-148.88;100.00;-17125.47;5076882;28;20021;-84
2023/12/07 03:14:30;;;;;;;26.15;10.98;;;;;;;-148.88;100.00;-17125.47;5077943;28;20029;-85
2023/12/07 03:16:55;;;;;;;27.52;11.07;;;;;;;-148.88;100.00;-17125.47;5078347;28;20028;-85
2023/12/07 03:19:20;;;;;;;26.60;11.65;;;;;;;-148.88;100.00;-17125.47;5077899;28;20025;-85
2023/12/07 03:21:46;;;;;;;27.23;10.93;;;;;;;-148.88;100.00;-17125.47;5079417;28;20024;-85
2023/12/07 03:24:11;;;;;;;26.25;12.13;;;;;;;-148.88;100.00;-17125.47;5079556;28;20021;-85
2023/12/07 03:26:37;;;;;;;26.73;11.88;;;;;;;-148.88;100.00;-17125.47;5074066;28;20390;-84
2023/12/07 03:29:03;;;;;;;30.95;11.15;;;;;;;-148.88;100.00;-17125.47;5075909;28;20423;-85
2023/12/07 03:31:28;;;;;;;32.60;13.88;;;;;;;-148.88;100.00;-17125.47;5075508;28;20016;-85
2023/12/07 03:33:55;;;;;;;31.50;12.07;;;;;;;-148.88;100.00;-17125.47;5075506;28;20028;-84
2023/12/07 03:36:20;;;;;;;31.52;10.75;;;;;;;-148.88;100.00;-17125.47;5075373;28;20078;-84
2023/12/07 03:38:46;;;;;;;26.13;11.70;;;;;;;-148.88;100.00;-17125.47;5074985;28;20492;-84
2023/12/07 03:41:11;;;;;;;29.17;11.77;;;;;;;-148.88;100.00;-17125.47;5074844;28;20457;-84
2023/12/07 03:43:37;;;;;;;24.45;11.10;;;;;;;-148.88;100.00;-17125.47;5074935;28;20021;-84
2023/12/07 03:46:06;;;;;;;34.15;12.73;;;;;;;-148.88;100.00;-17125.47;5074947;28;20021;-84
2023/12/07 03:48:33;;;;;;;29.50;11.38;;;;;;;-148.88;100.00;-17125.47;5077304;28;20055;-84
2023/12/07 03:50:59;;;;;;;32.22;12.13;;;;;;;-148.88;100.00;-17125.47;5077436;28;20028;-84
2023/12/07 03:53:24;;;;;;;27.25;11.43;;;;;;;-148.88;100.00;-17125.47;5077940;28;20095;-85
2023/12/07 03:55:50;;;;;;;27.30;12.48;;;;;;;-148.88;100.00;-17125.47;5077180;28;20115;-85
2023/12/07 03:58:15;;;;;;;31.75;11.73;;;;;;;-148.88;100.00;-17125.47;5077880;28;20025;-85
2023/12/07 04:00:41;;;;;;;27.83;12.55;;;;;;;-148.88;100.00;-17125.47;5074931;28;20098;-84
2023/12/07 04:03:06;;;;;;;33.17;13.23;;;;;;;-148.88;100.00;-17125.47;5074695;28;20020;-84
2023/12/07 04:05:33;;;;;;;28.63;12.38;;;;;;;-148.88;100.00;-17125.47;5074476;28;20035;-83
2023/12/07 04:07:58;;;;;;;28.13;12.38;;;;;;;-148.88;100.00;-17125.47;5074628;28;20024;-85
2023/12/07 04:10:24;;;;;;;31.30;12.68;;;;;;;-148.88;100.00;-17125.47;5074432;28;20445;-84
2023/12/07 04:12:49;;;;;;;29.17;12.38;;;;;;;-148.88;100.00;-17125.47;5074250;28;20040;-86
2023/12/07 04:15:14;;;;;;;31.73;13.10;;;;;;;-148.88;100.00;-17125.47;5074586;28;20020;-82
2023/12/07 04:17:40;;;;;;;31.48;13.48;;;;;;;-148.88;100.00;-17125.47;5074733;28;20031;-83
2023/12/07 04:20:07;;;;;;;28.75;12.15;;;;;;;-148.88;100.00;-17125.47;5074291;28;20024;-82
2023/12/07 04:22:32;;;;;;;36.03;14.20;;;;;;;-148.88;100.00;-17125.47;5074672;28;20025;-83
2023/12/07 04:24:58;;;;;;;32.45;12.48;;;;;;;-148.88;100.00;-17125.47;5077843;28;20055;-85
2023/12/07 04:27:23;;;;;;;27.70;13.00;;;;;;;-148.88;100.00;-17125.47;5077549;28;20035;-83
2023/12/07 04:29:48;;;;;;;30.13;12.20;;;;;;;-148.88;100.00;-17125.47;5077548;28;20025;-84
2023/12/07 04:32:14;;;;;;;32.17;13.00;;;;;;;-148.88;100.00;-17125.47;5075532;28;20020;-84
2023/12/07 04:34:39;;;;;;;33.22;12.43;;;;;;;-148.88;100.00;-17125.47;5075298;28;20028;-85
2023/12/07 04:37:04;;;;;;;31.90;11.40;;;;;;;-148.88;100.00;-17125.47;5074293;28;20024;-84
2023/12/07 04:39:30;;;;;;;26.75;11.25;;;;;;;-148.88;100.00;-17125.47;5072518;28;20032;-84
2023/12/07 04:41:55;;;;;;;32.45;12.07;;;;;;;-148.88;100.00;-17125.47;5072675;28;20122;-85
2023/12/07 04:44:21;;;;;;;28.42;11.43;;;;;;;-148.88;100.00;-17125.47;5073909;28;20024;-85
2023/12/07 04:46:46;;;;;;;27.70;11.82;;;;;;;-148.88;100.00;-17125.47;5073772;28;20037;-85
2023/12/07 04:49:11;;;;;;;33.92;13.15;;;;;;;-148.88;100.00;-17125.47;5073506;28;20057;-85
2023/12/07 04:51:37;;;;;;;34.55;13.23;;;;;;;-148.88;100.00;-17125.47;5073882;28;20016;-86
2023/12/07 04:54:02;;;;;;;35.33;13.93;;;;;;;-148.88;100.00;-17125.47;5073701;28;20062;-86
2023/12/07 04:56:28;;;;;;;31.13;12.75;;;;;;;-148.88;100.00;-17125.47;5073820;28;20052;-85
2023/12/07 04:58:53;;;;;;;34.85;14.35;;;;;;;-148.88;100.00;-17125.47;5073711;28;20024;-85
2023/12/07 05:01:19;;;;;;;29.77;12.23;;;;;;;-148.88;100.00;-17125.47;5073775;28;20386;-86
2023/12/07 05:03:45;;;;;;;34.55;13.50;;;;;;;-148.88;100.00;-17125.47;5073734;28;20021;-86
2023/12/07 05:06:10;;;;;;;34.63;13.75;;;;;;;-148.88;100.00;-17125.47;5073269;28;20092;-85
2023/12/07 05:08:36;;;;;;;33.90;13.40;;;;;;;-148.88;100.00;-17125.47;5074604;28;20039;-85
2023/12/07 05:11:01;;;;;;;28.67;13.10;;;;;;;-148.88;100.00;-17125.47;5074749;28;20081;-86
2023/12/07 05:13:26;;;;;;;28.85;12.73;;;;;;;-148.88;100.00;-17125.47;5076141;28;20479;-86
2023/12/07 05:15:52;;;;;;;32.95;12.90;;;;;;;-148.88;100.00;-17125.47;5073496;28;20109;-86
2023/12/07 05:18:17;;;;;;;31.00;11.82;;;;;;;-148.88;100.00;-17125.47;5071806;28;20035;-86
2023/12/07 05:20:43;;;;;;;32.75;13.35;;;;;;;-148.88;100.00;-17125.47;5074101;28;20028;-86
2023/12/07 05:23:09;;;;;;;32.00;13.85;;;;;;;-148.88;100.00;-17125.47;5073323;28;20051;-85
2023/12/07 05:25:34;;;;;;;28.80;13.23;;;;;;;-148.88;100.00;-17125.47;5073450;28;20017;-85
2023/12/07 05:27:59;;;;;;;29.60;12.70;;;;;;;-148.88;100.00;-17125.47;5073368;28;20506;-86
2023/12/07 05:30:25;;;;;;;32.10;13.13;;;;;;;-148.88;100.00;-17125.47;5073260;28;20089;-84
2023/12/07 05:32:50;;;;;;;33.92;14.35;;;;;;;-148.88;100.00;-17125.47;5073374;28;20111;-86
2023/12/07 05:35:16;;;;;;;30.52;12.65;;;;;;;-148.88;100.00;-17125.47;5073740;28;20508;-85
2023/12/07 05:37:41;;;;;;;31.33;12.63;;;;;;;-148.88;100.00;-17125.47;5073456;28;20029;-85
2023/12/07 05:40:09;;;;;;;35.25;13.65;;;;;;;-148.88;100.00;-17125.47;5073900;28;20039;-85
2023/12/07 05:42:34;;;;;;;29.40;12.63;;;;;;;-148.88;100.00;-17125.47;5073604;28;20065;-87
2023/12/07 05:45:00;;;;;;;29.45;11.77;;;;;;;-148.88;100.00;-17125.47;5073338;28;20028;-87
2023/12/07 05:47:26;;;;;;;37.13;13.82;;;;;;;-148.88;100.00;-17125.47;5073235;28;20504;-88
2023/12/07 05:49:52;;;;;;;34.22;12.85;;;;;;;-148.88;100.00;-17125.47;5072961;28;20395;-87
2023/12/07 05:52:17;;;;;;;33.30;12.80;;;;;;;-148.88;100.00;-17125.47;5073056;28;20020;-87
2023/12/07 05:54:43;;;;;;;31.90;12.13;;;;;;;-148.88;100.00;-17125.47;5071772;28;20027;-87
2023/12/07 05:57:08;;;;;;;33.92;13.85;;;;;;;-148.88;100.00;-17125.47;5072037;28;20045;-87
2023/12/07 05:59:38;;;;;;;34.60;13.63;;;;;;;-148.88;100.00;-17125.47;5073374;28;20107;-85
2023/12/07 06:02:04;;;;;;;32.33;13.85;;;;;;;-148.88;100.00;-17125.47;5073374;28;20020;-85
2023/12/07 06:04:30;;;;;;;34.15;13.50;;;;;;;-148.88;100.00;-17125.47;5073187;28;20067;-87
2023/12/07 06:06:55;;;;;;;31.33;13.73;;;;;;;-148.88;100.00;-17125.47;5072462;28;20111;-85
2023/12/07 06:09:21;;;;;;;31.48;14.40;;;;;;;-148.88;100.00;-17125.47;5072700;28;20028;-85
2023/12/07 06:11:46;;;;;;;34.97;14.60;;;;;;;-148.88;100.00;-17125.47;5073205;28;20128;-85
2023/12/07 06:14:11;;;;;;;38.88;14.38;;;;;;;-148.88;100.00;-17125.47;5073785;28;20036;-86
2023/12/07 06:16:37;;;;;;;36.47;15.77;;;;;;;-148.88;100.00;-17125.47;5074728;28;20032;-84
2023/12/07 06:19:03;;;;;;;35.33;15.15;;;;;;;-148.88;100.00;-17125.47;5073560;28;20021;-85
2023/12/07 06:21:47;;;;;;;35.13;15.38;;;;;;;-148.88;100.00;-17125.47;5072916;28;20048;-85
2023/12/07 06:24:14;;;;;;;38.53;15.55;;;;;;;-148.88;100.00;-17125.47;5073417;28;20118;-85
2023/12/07 06:26:39;;;;;;;44.08;15.65;;;;;;;-148.88;100.00;-17125.47;5072980;28;20511;-84
2023/12/07 06:29:07;;;;;;;35.28;15.20;;;;;;;-148.88;100.00;-17125.47;5073891;28;20031;-85
2023/12/07 06:31:32;;;;;;;34.28;13.40;;;;;;;-148.88;100.00;-17125.47;5076440;28;20070;-84
2023/12/07 06:34:00;;;;;;;32.47;13.93;;;;;;;-148.88;100.00;-17125.47;5077052;28;20024;-86
2023/12/07 06:36:26;;;;;;;40.58;15.65;;;;;;;-148.88;100.00;-17125.47;5076481;28;20024;-85
2023/12/07 06:38:52;;;;;;;34.97;14.65;;;;;;;-148.88;100.00;-17125.47;5076318;28;20044;-85
2023/12/07 06:41:18;;;;;;;38.20;16.65;;;;;;;-148.88;100.00;-17125.47;5076079;28;20024;-86
2023/12/07 06:43:44;;;;;;;39.10;15.07;;;;;;;-148.88;100.00;-17125.47;5076069;28;20024;-85
2023/12/07 06:46:12;;;;;;;39.55;17.25;;;;;;;-148.88;100.00;-17125.47;5076279;28;20028;-86
2023/12/07 06:48:38;;;;;;;42.05;16.60;;;;;;;-148.88;100.00;-17125.47;5076163;28;20020;-86
2023/12/07 06:51:03;;;;;;;45.28;18.00;;;;;;;-148.88;100.00;-17125.47;5077143;28;20035;-86
2023/12/07 06:53:29;;;;;;;32.92;15.43;;;;;;;-148.88;100.00;-17125.47;5076089;28;20024;-85
2023/12/07 06:55:54;;;;;;;40.22;15.90;;;;;;;-148.88;100.00;-17125.47;5074657;28;20077;-84
2023/12/07 06:58:20;;;;;;;39.58;16.88;;;;;;;-148.88;100.00;-17125.47;5075632;28;20025;-86
2023/12/07 07:00:45;;;;;;;46.38;17.92;;;;;;;-148.88;100.00;-17125.47;5074296;28;20021;-86
2023/12/07 07:03:11;;;;;;;46.00;17.85;;;;;;;-148.88;100.00;-17125.47;5074128;28;20507;-84
2023/12/07 07:05:36;;;;;;;48.92;18.95;;;;;;;-148.88;100.00;-17125.47;5075671;28;20026;-84
2023/12/07 07:08:02;;;;;;;44.85;16.88;;;;;;;-148.88;100.00;-17125.47;5075712;28;20099;-85
2023/12/07 07:10:27;;;;;;;43.83;18.20;;;;;;;-148.88;100.00;-17125.47;5075882;28;20032;-88
2023/12/07 07:12:52;;;;;;;45.92;20.52;;;;;;;-148.88;100.00;-17125.47;5074236;28;20475;-86
2023/12/07 07:15:18;;;;;;;50.30;19.67;;;;;;;-148.88;100.00;-17125.47;5075708;28;20036;-86
2023/12/07 07:17:43;;;;;;;48.30;17.98;;;;;;;-148.88;100.00;-17125.47;5075372;28;20427;-87
2023/12/07 07:20:09;;;;;;;51.53;18.20;;;;;;;-148.88;100.00;-17125.47;5075578;28;20025;-86
2023/12/07 07:22:35;;;;;;;48.83;18.92;;;;;;;-148.88;100.00;-17125.47;5075930;28;20036;-88
2023/12/07 07:25:04;;;;;;;52.78;18.55;;;;;;;-148.88;100.00;-17125.47;5075121;28;20025;-86
2023/12/07 07:27:30;;;;;;;50.20;20.95;;;;;;;-148.88;100.00;-17125.47;5075661;28;20454;-82
2023/12/07 07:29:55;;;;;;;73.30;24.83;;;;;;;-148.88;100.00;-17125.47;5075693;28;20024;-83
2023/12/07 07:32:20;;;;;;;78.13;26.50;;;;;;;-148.88;100.00;-17125.47;5075298;28;20027;-83
2023/12/07 07:34:46;;;;;;;73.93;24.90;;;;;;;-148.88;100.00;-17125.47;5075110;28;20028;-83
2023/12/07 07:37:11;;;;;;;77.00;25.08;;;;;;;-148.88;100.00;-17125.47;5075278;28;20467;-85
2023/12/07 07:39:37;;;;;;;71.25;24.55;;;;;;;-148.88;100.00;-17125.47;5074628;28;20471;-84
2023/12/07 07:42:02;;;;;;;53.75;19.05;;;;;;;-148.88;100.00;-17125.47;5075666;28;20403;-84
2023/12/07 07:44:28;;;;;;;66.18;23.50;;;;;;;-148.88;100.00;-17125.47;5075141;28;20025;-85
2023/12/07 07:46:53;;;;;;;59.28;22.02;;;;;;;-148.88;100.00;-17125.47;5075404;28;20020;-84
2023/12/07 07:49:19;;;;;;;54.47;20.75;;;;;;;-148.88;100.00;-17125.47;5075144;28;20056;-84
2023/12/07 07:51:44;;;;;;;49.45;18.95;;;;;;;-148.88;100.00;-17125.47;5075391;28;20104;-83
2023/12/07 07:54:10;;;;;;;49.25;18.50;;;;;;;-148.88;100.00;-17125.47;5075640;28;20111;-84
2023/12/07 07:56:35;;;;;;;52.30;18.00;;;;;;;-148.88;100.00;-17125.47;5074292;28;20024;-84
2023/12/07 07:59:01;;;;;;;50.30;20.60;;;;;;;-148.88;100.00;-17125.47;5075541;28;20074;-85
2023/12/07 08:01:26;;;;;;;50.00;20.23;;;;;;;-148.88;100.00;-17125.47;5075960;28;20475;-85
2023/12/07 08:03:52;;;;;;;50.42;18.67;;;;;;;-148.88;100.00;-17125.47;5075069;28;20036;-84
2023/12/07 08:06:18;;;;;;;50.42;20.80;;;;;;;-148.88;100.00;-17125.47;5073099;28;20024;-84
2023/12/07 08:08:44;;;;;;;46.72;18.88;;;;;;;-148.88;100.00;-17125.47;5074002;28;20020;-84
2023/12/07 08:11:09;;;;;;;48.53;19.25;;;;;;;-148.88;100.00;-17125.47;5074309;28;20031;-83
2023/12/07 08:13:34;;;;;;;53.95;20.52;;;;;;;-148.88;100.00;-17125.47;5074131;28;20040;-85
2023/12/07 08:16:00;;;;;;;60.80;19.95;;;;;;;-148.88;100.00;-17125.47;5074340;28;20023;-84
2023/12/07 08:18:26;;;;;;;53.20;19.17;;;;;;;-148.88;100.00;-17125.47;5074187;28;20394;-84
2023/12/07 08:20:51;;;;;;;53.08;20.20;;;;;;;-148.88;100.00;-17125.47;5074073;28;20020;-84
2023/12/07 08:23:16;;;;;;;45.58;17.75;;;;;;;-148.88;100.00;-17125.47;5074028;28;20029;-82
2023/12/07 08:25:43;;;;;;;54.35;18.70;;;;;;;-148.88;100.00;-17125.47;5074039;28;20108;-84
2023/12/07 08:28:09;;;;;;;55.00;18.85;;;;;;;-148.88;100.00;-17125.47;5073205;28;20032;-85
2023/12/07 08:30:35;;;;;;;56.13;19.88;;;;;;;-148.88;100.00;-17125.47;5073964;28;20026;-84
2023/12/07 08:33:00;;;;;;;52.15;18.08;;;;;;;-148.88;100.00;-17125.47;5074079;28;20029;-86
2023/12/07 08:35:26;;;;;;;44.70;17.50;;;;;;;-148.88;100.00;-17125.47;5074215;28;20027;-85
2023/12/07 08:37:51;;;;;;;46.10;18.40;;;;;;;-148.88;100.00;-17125.47;5074423;28;20497;-86
2023/12/07 08:40:16;;;;;;;46.40;16.75;;;;;;;-148.88;100.00;-17125.47;5073927;28;20372;-85
2023/12/07 08:42:47;;;;;;;42.10;15.40;;;;;;;-148.88;100.00;-17125.47;5073284;28;20421;-85
2023/12/07 08:45:13;;;;;;;40.92;17.40;;;;;;;-148.88;100.00;-17125.47;5074041;28;20033;-85
2023/12/07 08:47:39;;;;;;;45.42;17.58;;;;;;;-148.88;100.00;-17125.47;5073758;28;20150;-85
2023/12/07 08:50:05;;;;;;;45.92;17.48;;;;;;;-148.88;100.00;-17125.47;5073444;28;20063;-86
2023/12/07 08:52:30;;;;;;;49.05;17.83;;;;;;;-148.88;100.00;-17125.47;5072431;28;20024;-85
2023/12/07 08:54:58;;;;;;;47.83;17.17;;;;;;;-148.88;100.00;-17125.47;5072158;28;20095;-85
2023/12/07 08:57:24;;;;;;;48.72;17.17;;;;;;;-148.88;100.00;-17125.47;5072799;28;20047;-86
2023/12/07 08:59:49;;;;;;;55.75;18.90;;;;;;;-148.88;100.00;-17125.47;5073150;28;20454;-85
2023/12/07 09:02:15;;;;;;;48.70;19.58;;;;;;;-148.88;100.00;-17125.47;5073537;28;20036;-86
2023/12/07 09:04:40;;;;;;;46.53;17.67;;;;;;;-148.88;100.00;-17125.47;5073589;28;20082;-86
2023/12/07 09:07:06;;;;;;;46.83;17.38;;;;;;;-148.88;100.00;-17125.47;5073935;28;20021;-85
2023/12/07 09:09:35;;;;;;;44.03;17.92;;;;;;;-148.88;100.00;-17125.47;5074022;28;20036;-86
2023/12/07 09:12:00;;;;;;;47.35;17.70;;;;;;;-148.88;100.00;-17125.47;5073918;28;20082;-88
2023/12/07 09:14:26;;;;;;;43.67;17.00;;;;;;;-148.88;100.00;-17125.47;5073407;28;20020;-87
2023/12/07 09:16:54;;;;;;;45.05;16.70;;;;;;;-148.88;100.00;-17125.47;5073432;28;20083;-83
2023/12/07 09:19:20;;;;;;;48.92;17.40;;;;;;;-148.88;100.00;-17125.47;5073045;28;20047;-88
2023/12/07 09:21:45;;;;;;;60.13;18.17;;;;;;;-148.88;100.00;-17125.47;5073370;28;20105;-86
2023/12/07 09:24:11;;;;;;;37.28;15.00;;;;;;;-148.88;100.00;-17125.47;5071739;28;20032;-84
2023/12/07 09:26:37;;;;;;;48.33;17.42;;;;;;;-148.88;100.00;-17125.47;5071860;28;20490;-85
2023/12/07 09:29:02;;;;;;;52.00;17.08;;;;;;;-148.88;100.00;-17125.47;5072947;28;20394;-86
2023/12/07 09:31:28;;;;;;;47.35;16.38;;;;;;;-148.88;100.00;-17125.47;5072106;28;20038;-85
2023/12/07 09:33:53;;;;;;;51.05;17.00;;;;;;;-148.88;100.00;-17125.47;5071854;28;20103;-83
2023/12/07 09:36:23;;;;;;;57.03;19.27;;;;;;;-148.88;100.00;-17125.47;5073487;28;20103;-86
2023/12/07 09:38:49;;;;;;;55.15;17.35;;;;;;;-148.88;100.00;-17125.47;5072286;28;20116;-85
2023/12/07 09:41:16;;;;;;;64.80;18.80;;;;;;;-148.88;100.00;-17125.47;5072992;28;20048;-86
2023/12/07 09:43:41;;;;;;;51.05;17.20;;;;;;;-148.88;100.00;-17125.47;5073414;28;20025;-85
2023/12/07 09:46:07;;;;;;;48.25;17.02;;;;;;;-148.88;100.00;-17125.47;5073819;28;20365;-82
2023/12/07 09:48:32;;;;;;;48.72;17.05;;;;;;;-148.88;100.00;-17125.47;5073912;28;20067;-85
2023/12/07 09:51:05;;;;;;;44.42;13.85;;;;;;;-148.88;100.00;-17125.47;5072925;28;20525;-85
2023/12/07 09:53:34;;;;;;;46.28;16.52;;;;;;;-148.88;100.00;-17125.47;5071408;28;20108;-86
2023/12/07 09:55:59;;;;;;;45.17;14.82;;;;;;;-148.88;100.00;-17125.47;5073502;28;20047;-84
2023/12/07 09:58:25;;;;;;;46.83;14.13;;;;;;;-148.88;100.00;-17125.47;5072911;28;20455;-84
2023/12/07 10:00:50;;;;;;;52.83;17.33;;;;;;;-148.88;100.00;-17125.47;5073030;28;20154;-87
2023/12/07 10:03:25;;;;;;;46.13;16.13;;;;;;;-148.88;100.00;-17125.47;5074454;28;20028;-85
2023/12/07 10:05:59;;;;;;;54.05;17.00;;;;;;;-148.88;100.00;-17125.47;5076578;28;20475;-83
2023/12/07 10:08:35;;;;;;;47.22;14.48;;;;;;;-148.88;100.00;-17125.47;5075137;28;20035;-84
2023/12/07 10:11:09;;;;;;;53.60;16.30;;;;;;;-148.88;100.00;-17125.47;5076870;28;20103;-86
2023/12/07 10:13:37;;;;;;;52.17;14.65;;;;;;;-148.88;100.00;-17125.47;5075719;28;20048;-85
2023/12/07 10:16:14;;;;;;;52.42;16.05;;;;;;;-148.88;100.00;-17125.47;5077045;28;20031;-84
2023/12/07 10:18:40;;;;;;;52.40;15.70;;;;;;;-148.88;100.00;-17125.47;5076643;28;20020;-87
2023/12/07 10:21:09;;;;;;;60.00;15.50;;;;;;;-148.88;100.00;-17125.47;5076769;28;20028;-86
2023/12/07 10:23:38;;;;;;;55.25;16.10;;;;;;;-148.88;100.00;-17125.47;5077146;28;20393;-85
2023/12/07 10:26:07;;;;;;;58.25;16.38;;;;;;;-148.88;100.00;-17125.47;5074963;28;20115;-83
2023/12/07 10:28:39;;;;;;;52.00;15.98;;;;;;;-148.88;100.00;-17125.47;5074908;28;20027;-86
2023/12/07 10:31:09;;;;;;;52.10;15.95;;;;;;;-148.88;100.00;-17125.47;5075786;28;20025;-86
2023/12/07 10:33:38;;;;;;;60.45;16.15;;;;;;;-148.88;100.00;-17125.47;5076393;28;20013;-85
2023/12/07 10:36:04;;;;;;;55.05;16.23;;;;;;;-148.88;100.00;-17125.47;5074881;28;20074;-84
2023/12/07 10:38:33;;;;;;;58.65;16.63;;;;;;;-148.88;100.00;-17125.47;5075259;28;20020;-88
2023/12/07 10:41:06;;;;;;;57.50;16.25;;;;;;;-148.88;100.00;-17125.47;5074672;28;20570;-88
2023/12/07 10:43:36;;;;;;;58.30;15.17;;;;;;;-148.88;100.00;-17125.47;5075351;28;20124;-88